Time;durP1;ratioP1;P1;durP2;ratioP2;P2;SDS_P1;SDS_P2;PMS_P1;PMS_P2;Temp;Humidity;BMP_temperature;BMP_pressure;BME280_temperature;BME280_humidity;BME280_pressure;Samples;Min_cycle;Max_cycle;Signal;HPM_P1;HPM_P2
2022/11/13 00:00:11;;;;;;;21.00;11.38;;;;;;;6.39;100.00;102505.81;5113929;28;20414;-85
2022/11/13 00:02:36;;;;;;;18.50;11.02;;;;;;;6.36;100.00;102504.25;5114905;28;20039;-86
2022/11/13 00:05:02;;;;;;;16.97;10.83;;;;;;;6.34;100.00;102490.09;5130554;27;20043;-85
2022/11/13 00:07:27;;;;;;;17.63;10.50;;;;;;;6.34;100.00;102500.88;5078385;28;20045;-85
2022/11/13 00:09:53;;;;;;;15.73;10.23;;;;;;;6.32;100.00;102501.03;5079464;28;20051;-85
2022/11/13 00:12:18;;;;;;;16.95;11.02;;;;;;;6.26;100.00;102495.34;5079528;28;20044;-85
2022/11/13 00:14:44;;;;;;;16.83;10.17;;;;;;;6.23;100.00;102491.13;5095901;28;20027;-85
2022/11/13 00:17:11;;;;;;;17.63;9.37;;;;;;;6.19;100.00;102488.88;5096071;28;20601;-85
2022/11/13 00:19:37;;;;;;;16.58;9.75;;;;;;;6.15;100.00;102481.06;5112909;28;20041;-85
2022/11/13 00:22:02;;;;;;;16.40;9.43;;;;;;;6.10;100.00;102483.34;5095921;28;20048;-85
2022/11/13 00:24:28;;;;;;;16.80;10.20;;;;;;;6.04;100.00;102475.84;5096208;28;20036;-85
2022/11/13 00:26:53;;;;;;;15.98;9.73;;;;;;;6.00;100.00;102474.44;5112860;28;20086;-85
2022/11/13 00:29:18;;;;;;;15.10;9.07;;;;;;;5.96;100.00;102475.69;5112538;28;20100;-86
2022/11/13 00:31:44;;;;;;;17.83;9.77;;;;;;;5.90;100.00;102481.66;5112793;28;20040;-85
2022/11/13 00:34:10;;;;;;;15.13;9.23;;;;;;;5.88;100.00;102483.66;5112819;28;20067;-85
2022/11/13 00:36:35;;;;;;;15.65;9.13;;;;;;;5.83;100.00;102478.72;5112768;28;20036;-85
2022/11/13 00:39:01;;;;;;;15.73;9.63;;;;;;;5.77;100.00;102477.44;5112968;28;20043;-84
2022/11/13 00:41:26;;;;;;;16.80;9.87;;;;;;;5.75;100.00;102470.47;5112664;28;20036;-85
2022/11/13 00:43:52;;;;;;;17.10;9.80;;;;;;;5.70;100.00;102470.91;5112385;28;20468;-86
2022/11/13 00:46:17;;;;;;;16.30;9.77;;;;;;;5.69;100.00;102465.69;5112782;28;20039;-85
2022/11/13 00:48:45;;;;;;;17.70;9.90;;;;;;;5.65;100.00;102467.78;5112304;28;20031;-85
2022/11/13 00:51:11;;;;;;;16.25;9.68;;;;;;;5.61;100.00;102474.47;5113441;28;20487;-85
2022/11/13 00:53:36;;;;;;;14.47;9.47;;;;;;;5.58;100.00;102463.97;5095721;28;20047;-85
2022/11/13 00:56:01;;;;;;;14.47;9.40;;;;;;;5.52;100.00;102459.16;5095565;28;20048;-85
2022/11/13 00:58:27;;;;;;;16.55;9.25;;;;;;;5.48;100.00;102452.34;5112622;28;20273;-85
2022/11/13 01:00:53;;;;;;;17.13;9.80;;;;;;;5.45;100.00;102451.66;5112733;28;20053;-85
2022/11/13 01:03:18;;;;;;;18.48;9.55;;;;;;;5.42;100.00;102445.72;5129890;28;20483;-85
2022/11/13 01:05:45;;;;;;;15.73;9.53;;;;;;;5.39;100.00;102452.22;5112815;28;20047;-85
2022/11/13 01:08:15;;;;;;;17.52;10.07;;;;;;;5.40;100.00;102459.31;5113245;28;20036;-85
2022/11/13 01:10:44;;;;;;;18.83;9.83;;;;;;;5.39;100.00;102451.38;5129544;28;20039;-85
2022/11/13 01:13:09;;;;;;;14.95;9.73;;;;;;;5.38;100.00;102447.00;5129381;28;20040;-85
2022/11/13 01:15:40;;;;;;;16.70;10.60;;;;;;;5.34;100.00;102440.19;5112379;28;20046;-85
2022/11/13 01:18:05;;;;;;;17.17;9.93;;;;;;;5.34;100.00;102449.09;5115330;28;20100;-85
2022/11/13 01:20:31;;;;;;;15.45;10.10;;;;;;;5.33;100.00;102444.72;5116114;28;20471;-84
2022/11/13 01:22:57;;;;;;;14.45;9.90;;;;;;;5.34;100.00;102448.25;5099373;28;20525;-85
2022/11/13 01:25:23;;;;;;;18.60;10.32;;;;;;;5.33;100.00;102444.72;5116992;28;20035;-86
2022/11/13 01:27:48;;;;;;;15.10;9.77;;;;;;;5.34;100.00;102449.09;5099362;28;20356;-85
2022/11/13 01:30:14;;;;;;;14.65;9.38;;;;;;;5.33;100.00;102439.34;5133480;27;20281;-85
2022/11/13 01:32:39;;;;;;;15.17;9.00;;;;;;;5.34;100.00;102442.88;5115984;28;20121;-85
2022/11/13 01:35:05;;;;;;;18.27;10.53;;;;;;;5.32;100.00;102440.31;5115908;28;20046;-86
2022/11/13 01:37:30;;;;;;;13.57;9.07;;;;;;;5.32;100.00;102443.00;5115560;28;20031;-85
2022/11/13 01:39:56;;;;;;;15.40;9.17;;;;;;;5.31;100.00;102445.84;5116274;28;20048;-85
2022/11/13 01:42:21;;;;;;;15.77;9.80;;;;;;;5.29;100.00;102443.31;5115762;28;20368;-86
2022/11/13 01:44:51;;;;;;;15.85;10.27;;;;;;;5.24;100.00;102443.72;5132488;27;20499;-86
2022/11/13 01:47:17;;;;;;;16.03;10.20;;;;;;;5.26;100.00;102443.59;5115652;28;20043;-86
2022/11/13 01:49:47;;;;;;;18.45;10.60;;;;;;;5.23;100.00;102446.56;5115622;28;20039;-85
2022/11/13 01:52:20;;;;;;;14.38;10.48;;;;;;;5.18;100.00;102425.47;5115578;28;20040;-86
2022/11/13 01:54:52;;;;;;;13.65;9.55;;;;;;;5.17;100.00;102426.44;5116556;28;20071;-85
2022/11/13 01:57:18;;;;;;;15.00;9.95;;;;;;;5.18;100.00;102425.47;5133588;27;20061;-86
2022/11/13 01:59:49;;;;;;;15.80;9.97;;;;;;;5.16;100.00;102415.81;5115379;28;20061;-85
2022/11/13 02:02:15;;;;;;;16.55;9.27;;;;;;;5.16;100.00;102413.13;5115404;28;20040;-85
2022/11/13 02:04:40;;;;;;;13.18;9.07;;;;;;;5.13;100.00;102410.72;5132690;27;20032;-85
2022/11/13 02:07:10;;;;;;;16.50;8.73;;;;;;;5.13;100.00;102399.97;5115600;28;20609;-85
2022/11/13 02:09:39;;;;;;;15.50;8.48;;;;;;;5.10;100.00;102407.31;5132641;27;20043;-85
2022/11/13 02:12:11;;;;;;;17.80;8.82;;;;;;;5.10;100.00;102404.63;5132583;27;20490;-85
2022/11/13 02:14:41;;;;;;;13.75;8.57;;;;;;;5.08;100.00;102403.91;5116462;27;20044;-85
2022/11/13 02:17:10;;;;;;;15.80;8.63;;;;;;;5.08;100.00;102403.91;5132241;27;20035;-85
2022/11/13 02:19:40;;;;;;;15.10;8.47;;;;;;;5.09;100.00;102397.56;5116716;28;20108;-85
2022/11/13 02:22:27;;;;;;;13.27;8.23;;;;;;;5.12;100.00;102396.41;5115234;28;20057;-86
2022/11/13 02:24:56;;;;;;;14.13;8.57;;;;;;;5.10;100.00;102391.16;5114975;28;20547;-85
2022/11/13 02:27:44;;;;;;;13.43;9.00;;;;;;;5.10;100.00;102387.63;5131989;27;20043;-86
2022/11/13 02:30:11;;;;;;;16.92;8.25;;;;;;;5.09;100.00;102380.53;5114770;28;20031;-86
2022/11/13 02:32:45;;;;;;;14.63;8.43;;;;;;;5.09;100.00;102383.22;5114550;28;20040;-86
2022/11/13 02:35:13;;;;;;;12.88;8.43;;;;;;;5.07;100.00;102379.84;5115133;28;20040;-85
2022/11/13 02:37:39;;;;;;;13.85;8.18;;;;;;;5.07;100.00;102380.69;5132074;27;20524;-85
2022/11/13 02:40:05;;;;;;;13.30;8.00;;;;;;;5.05;100.00;102382.69;5097952;28;20035;-86
2022/11/13 02:42:31;;;;;;;14.75;8.65;;;;;;;5.07;100.00;102386.06;5114588;28;20035;-85
2022/11/13 02:44:56;;;;;;;14.02;7.90;;;;;;;5.07;100.00;102379.84;5114004;28;20056;-85
2022/11/13 02:47:22;;;;;;;11.50;7.93;;;;;;;5.06;100.00;102379.00;5098343;28;20044;-85
2022/11/13 02:49:47;;;;;;;11.17;7.63;;;;;;;5.06;100.00;102376.31;5113943;28;20043;-86
2022/11/13 02:52:15;;;;;;;11.20;7.67;;;;;;;5.07;100.00;102377.16;5131961;27;20136;-86
2022/11/13 02:54:40;;;;;;;12.65;8.13;;;;;;;5.03;100.00;102365.81;5097321;28;20069;-86
2022/11/13 02:57:06;;;;;;;12.80;7.87;;;;;;;5.02;100.00;102364.13;5114297;28;20082;-86
2022/11/13 02:59:31;;;;;;;12.13;8.17;;;;;;;5.00;100.00;102359.88;5097223;28;20044;-86
2022/11/13 03:01:56;;;;;;;14.55;8.30;;;;;;;5.00;100.00;102367.94;5097115;28;20039;-86
2022/11/13 03:04:22;;;;;;;12.27;8.07;;;;;;;4.96;100.00;102369.22;5113919;28;20039;-86
2022/11/13 03:06:47;;;;;;;10.90;7.57;;;;;;;4.92;100.00;102366.81;5097388;28;20135;-86
2022/11/13 03:09:13;;;;;;;11.00;7.57;;;;;;;4.89;100.00;102361.72;5113842;28;20047;-86
2022/11/13 03:11:38;;;;;;;12.35;8.35;;;;;;;4.87;100.00;102361.03;5114116;28;20160;-86
2022/11/13 03:14:04;;;;;;;10.87;7.53;;;;;;;4.85;100.00;102356.75;5131446;27;20050;-86
2022/11/13 03:16:29;;;;;;;16.57;8.73;;;;;;;4.85;100.00;102349.53;5113943;28;20035;-85
2022/11/13 03:18:55;;;;;;;14.82;7.72;;;;;;;4.84;100.00;102350.53;5096980;28;20043;-85
2022/11/13 03:21:21;;;;;;;12.90;7.90;;;;;;;4.85;100.00;102343.31;5113514;28;20050;-85
2022/11/13 03:23:46;;;;;;;14.10;7.95;;;;;;;4.85;100.00;102343.31;5096885;28;20039;-86
2022/11/13 03:26:15;;;;;;;13.63;7.07;;;;;;;4.86;100.00;102335.09;5114106;28;20036;-86
2022/11/13 03:28:40;;;;;;;13.32;8.10;;;;;;;4.92;100.00;102347.16;5113430;28;20035;-86
2022/11/13 03:31:06;;;;;;;14.05;8.43;;;;;;;4.91;100.00;102335.50;5113790;28;20613;-85
2022/11/13 03:33:31;;;;;;;14.53;8.83;;;;;;;4.97;100.00;102339.47;5115341;28;20126;-86
2022/11/13 03:35:57;;;;;;;13.60;8.63;;;;;;;4.97;100.00;102333.25;5130739;27;20036;-86
2022/11/13 03:38:22;;;;;;;12.68;8.93;;;;;;;5.02;100.00;102326.47;5114123;28;20023;-85
2022/11/13 03:40:48;;;;;;;13.70;8.95;;;;;;;5.04;100.00;102340.63;5096860;28;20062;-85
2022/11/13 03:43:14;;;;;;;13.90;8.73;;;;;;;5.10;100.00;102323.06;5113417;28;20395;-86
2022/11/13 03:45:39;;;;;;;15.63;8.82;;;;;;;5.17;100.00;102324.19;5113792;28;20057;-85
2022/11/13 03:48:05;;;;;;;12.17;8.70;;;;;;;5.23;100.00;102318.22;5130590;27;20035;-85
2022/11/13 03:50:30;;;;;;;13.45;9.10;;;;;;;5.29;100.00;102319.50;5113865;28;20046;-85
2022/11/13 03:52:56;;;;;;;15.63;8.13;;;;;;;5.33;100.00;102317.34;5113245;28;20422;-85
2022/11/13 03:55:21;;;;;;;13.57;8.50;;;;;;;5.37;100.00;102318.78;5113311;28;20126;-86
2022/11/13 03:57:47;;;;;;;13.20;8.40;;;;;;;5.41;100.00;102312.94;5113221;28;20403;-85
2022/11/13 04:00:13;;;;;;;11.27;7.82;;;;;;;5.47;100.00;102310.69;5113153;28;20273;-86
2022/11/13 04:02:39;;;;;;;13.93;7.70;;;;;;;5.50;100.00;102308.53;5130005;27;20466;-85
2022/11/13 04:05:05;;;;;;;13.10;7.57;;;;;;;5.54;100.00;102303.72;5113751;28;20067;-85
2022/11/13 04:07:31;;;;;;;11.60;7.20;;;;;;;5.57;100.00;102296.19;5129844;27;20035;-86
2022/11/13 04:09:56;;;;;;;9.70;7.13;;;;;;;5.65;100.00;102290.06;5112710;28;20028;-85
2022/11/13 04:12:24;;;;;;;10.73;7.10;;;;;;;5.69;100.00;102287.94;5096319;28;20048;-86
2022/11/13 04:14:49;;;;;;;12.15;6.90;;;;;;;5.72;100.00;102296.56;5096305;28;20040;-85
2022/11/13 04:17:15;;;;;;;10.83;7.07;;;;;;;5.72;100.00;102299.25;5113820;28;20036;-86
2022/11/13 04:19:40;;;;;;;11.52;6.80;;;;;;;5.71;100.00;102294.84;5096577;28;20837;-85
2022/11/13 04:22:06;;;;;;;10.07;6.43;;;;;;;5.71;100.00;102285.94;5129980;27;20040;-85
2022/11/13 04:24:31;;;;;;;10.93;5.67;;;;;;;5.71;100.00;102294.84;5112875;28;20044;-86
2022/11/13 04:26:56;;;;;;;9.63;6.30;;;;;;;5.68;100.00;102286.22;5095570;28;20064;-85
2022/11/13 04:29:22;;;;;;;9.75;6.45;;;;;;;5.70;100.00;102286.91;5129654;28;20075;-86
2022/11/13 04:31:47;;;;;;;10.50;6.35;;;;;;;5.69;100.00;102286.06;5096183;28;20144;-86
2022/11/13 04:34:13;;;;;;;14.07;6.90;;;;;;;5.66;100.00;102282.84;5112794;28;20128;-86
2022/11/13 04:36:38;;;;;;;10.37;6.47;;;;;;;5.64;100.00;102277.63;5095818;28;20039;-86
2022/11/13 04:39:04;;;;;;;9.13;6.20;;;;;;;5.62;100.00;102280.44;5112804;28;20040;-86
2022/11/13 04:44:13;;;;;;;8.45;6.05;;;;;;;5.61;100.00;102270.66;5127611;28;20058;-85
2022/11/13 04:46:42;;;;;;;14.43;6.30;;;;;;;5.64;100.00;102277.63;5096005;28;20048;-86
2022/11/13 04:49:07;;;;;;;11.10;6.35;;;;;;;5.65;100.00;102273.91;5112673;28;20035;-86
2022/11/13 04:51:33;;;;;;;11.13;6.90;;;;;;;5.64;100.00;102272.22;5095535;28;20130;-85
2022/11/13 04:53:58;;;;;;;13.00;6.07;;;;;;;5.66;100.00;102272.91;5098539;28;20070;-85
2022/11/13 04:56:23;;;;;;;12.07;6.53;;;;;;;5.65;100.00;102275.75;5134363;27;20040;-86
2022/11/13 04:58:51;;;;;;;10.93;6.40;;;;;;;5.66;100.00;102281.00;5116673;28;20040;-84
2022/11/13 05:01:17;;;;;;;10.98;6.60;;;;;;;5.64;100.00;102277.63;5116515;28;20036;-85
2022/11/13 05:03:42;;;;;;;10.93;6.50;;;;;;;5.60;100.00;102274.34;5116829;28;20046;-85
2022/11/13 05:06:09;;;;;;;9.57;6.10;;;;;;;5.58;100.00;102276.34;5116588;28;20039;-85
2022/11/13 05:08:34;;;;;;;11.95;6.63;;;;;;;5.55;100.00;102281.16;5133181;27;20080;-86
2022/11/13 05:11:01;;;;;;;9.90;6.45;;;;;;;5.53;100.00;102277.78;5116423;28;20384;-86
2022/11/13 05:13:30;;;;;;;11.15;6.82;;;;;;;5.51;100.00;102279.78;5133450;27;20032;-86
2022/11/13 05:16:04;;;;;;;11.95;6.90;;;;;;;5.46;100.00;102274.81;5116986;28;20121;-86
2022/11/13 05:18:30;;;;;;;12.45;6.60;;;;;;;5.43;100.00;102277.81;5116678;28;20031;-86
2022/11/13 05:20:56;;;;;;;10.25;6.75;;;;;;;5.39;100.00;102274.56;5099113;28;20440;-86
2022/11/13 05:23:21;;;;;;;11.33;7.13;;;;;;;5.34;100.00;102266.06;5116190;28;20049;-86
2022/11/13 05:25:47;;;;;;;10.63;6.50;;;;;;;5.30;100.00;102274.59;5116397;28;20063;-86
2022/11/13 05:28:12;;;;;;;11.10;6.13;;;;;;;5.25;100.00;102266.94;5116179;28;20039;-86
2022/11/13 05:30:38;;;;;;;10.50;6.40;;;;;;;5.19;100.00;102271.06;5116118;28;20069;-86
2022/11/13 05:33:03;;;;;;;10.30;6.70;;;;;;;5.13;100.00;102262.75;5116076;28;20028;-86
2022/11/13 05:35:28;;;;;;;10.00;6.23;;;;;;;5.08;100.00;102258.63;5133119;27;20471;-86
2022/11/13 05:37:54;;;;;;;12.73;6.22;;;;;;;5.03;100.00;102257.38;5116209;28;20036;-86
2022/11/13 05:40:19;;;;;;;12.40;6.67;;;;;;;4.97;100.00;102249.88;5116838;28;20172;-86
2022/11/13 05:42:45;;;;;;;11.30;6.57;;;;;;;4.87;100.00;102249.88;5099347;28;20039;-86
2022/11/13 05:45:10;;;;;;;9.73;6.90;;;;;;;4.83;100.00;102257.41;5115116;28;20048;-86
2022/11/13 05:47:36;;;;;;;10.30;6.55;;;;;;;4.75;100.00;102257.25;5098706;28;20047;-86
2022/11/13 05:50:01;;;;;;;11.88;6.50;;;;;;;4.69;100.00;102255.13;5115966;28;20077;-86
2022/11/13 05:52:26;;;;;;;11.90;6.77;;;;;;;4.64;100.00;102262.78;5115678;28;20043;-86
2022/11/13 05:54:52;;;;;;;11.10;5.87;;;;;;;4.60;100.00;102267.59;5115861;28;20047;-86
2022/11/13 05:57:17;;;;;;;10.53;6.70;;;;;;;4.55;100.00;102261.81;5117084;28;20039;-86
2022/11/13 05:59:43;;;;;;;10.65;6.50;;;;;;;4.52;100.00;102262.91;5115766;28;20456;-86
2022/11/13 06:02:08;;;;;;;9.27;6.23;;;;;;;4.49;100.00;102260.53;5115603;28;20038;-86
2022/11/13 06:04:34;;;;;;;9.73;6.33;;;;;;;4.45;100.00;102263.63;5114350;28;20043;-86
2022/11/13 06:06:59;;;;;;;11.33;6.53;;;;;;;4.39;100.00;102257.81;5098924;28;20364;-86
2022/11/13 06:09:24;;;;;;;10.73;7.10;;;;;;;4.37;100.00;102267.00;5114988;28;20395;-86
2022/11/13 06:11:50;;;;;;;11.75;7.00;;;;;;;4.32;100.00;102251.28;5115264;28;20541;-86
2022/11/13 06:14:15;;;;;;;11.37;7.00;;;;;;;4.31;100.00;102248.75;5116467;28;20042;-86
2022/11/13 06:16:41;;;;;;;10.37;6.57;;;;;;;4.28;100.00;102244.53;5115102;28;20063;-86
2022/11/13 06:19:12;;;;;;;11.47;6.57;;;;;;;4.25;100.00;102242.09;5115096;28;20036;-85
2022/11/13 06:21:39;;;;;;;12.13;6.78;;;;;;;4.20;100.00;102233.63;5131904;27;20031;-86
2022/11/13 06:24:05;;;;;;;10.32;6.78;;;;;;;4.17;100.00;102232.03;5116185;28;20039;-85
2022/11/13 06:26:33;;;;;;;11.88;6.78;;;;;;;4.15;100.00;102230.47;5132979;27;20464;-86
2022/11/13 06:29:00;;;;;;;14.43;7.10;;;;;;;4.10;100.00;102233.59;5115934;28;20476;-86
2022/11/13 06:31:28;;;;;;;10.77;6.53;;;;;;;4.07;100.00;102235.72;5115891;28;20039;-86
2022/11/13 06:33:54;;;;;;;11.10;7.22;;;;;;;4.03;100.00;102240.50;5132064;27;20613;-86
2022/11/13 06:36:28;;;;;;;10.52;6.72;;;;;;;3.99;100.00;102231.88;5114854;28;20073;-84
2022/11/13 06:38:53;;;;;;;11.40;6.80;;;;;;;3.98;100.00;102232.03;5132785;27;20031;-84
2022/11/13 06:41:21;;;;;;;12.80;7.07;;;;;;;3.94;100.00;102223.41;5114793;28;20100;-85
2022/11/13 06:44:05;;;;;;;15.15;7.30;;;;;;;3.91;100.00;102214.75;5115119;28;20039;-94
2022/11/13 06:46:31;;;;;;;11.90;6.90;;;;;;;3.90;100.00;102219.28;5094497;28;20144;-87
2022/11/13 06:48:57;;;;;;;10.98;7.05;;;;;;;3.88;100.00;102215.88;5077345;28;20044;-87
2022/11/13 06:51:26;;;;;;;12.63;6.93;;;;;;;3.90;100.00;102227.34;5060612;28;20372;-87
2022/11/13 06:53:54;;;;;;;11.98;7.03;;;;;;;3.90;100.00;102221.97;5077205;28;20043;-88
2022/11/13 06:56:20;;;;;;;12.85;7.47;;;;;;;3.89;100.00;102214.91;5076587;28;20129;-87
2022/11/13 06:58:46;;;;;;;10.30;6.95;;;;;;;3.88;100.00;102218.56;5093848;28;20146;-86
2022/11/13 07:01:15;;;;;;;12.60;7.23;;;;;;;3.88;100.00;102223.94;5093623;28;20122;-87
2022/11/13 07:03:41;;;;;;;13.50;7.55;;;;;;;3.89;100.00;102209.53;5076844;28;20040;-87
2022/11/13 07:06:14;;;;;;;15.27;7.95;;;;;;;3.92;100.00;102216.47;5093691;28;20094;-87
2022/11/13 07:08:41;;;;;;;13.53;7.57;;;;;;;3.94;100.00;102218.03;5094637;28;20032;-87
2022/11/13 07:11:09;;;;;;;12.38;7.63;;;;;;;3.99;100.00;102220.28;5093589;28;20036;-86
2022/11/13 07:13:36;;;;;;;16.23;7.82;;;;;;;4.05;100.00;102227.78;5076776;28;20032;-87
2022/11/13 07:16:03;;;;;;;12.63;7.70;;;;;;;4.07;100.00;102219.59;5092979;28;20040;-86
2022/11/13 07:18:30;;;;;;;13.25;8.00;;;;;;;4.08;100.00;102218.63;5093714;28;20093;-87
2022/11/13 07:20:56;;;;;;;13.93;8.17;;;;;;;4.14;100.00;102224.28;5076691;28;20035;-87
2022/11/13 07:23:21;;;;;;;12.77;7.88;;;;;;;4.15;100.00;102225.09;5076161;28;20047;-87
2022/11/13 07:25:47;;;;;;;14.73;8.07;;;;;;;4.15;100.00;102217.91;5076257;28;20032;-87
2022/11/13 07:28:12;;;;;;;13.90;8.20;;;;;;;4.18;100.00;102211.44;5076528;28;20126;-86
2022/11/13 07:30:38;;;;;;;15.33;8.27;;;;;;;4.20;100.00;102212.13;5076304;28;20132;-86
2022/11/13 07:33:03;;;;;;;12.30;7.43;;;;;;;4.22;100.00;102204.75;5076336;28;20089;-87
2022/11/13 07:35:29;;;;;;;12.85;7.93;;;;;;;4.28;100.00;102206.03;5076282;28;20523;-86
2022/11/13 07:37:55;;;;;;;12.18;8.27;;;;;;;4.27;100.00;102209.75;5059296;28;20571;-87
2022/11/13 07:40:21;;;;;;;17.10;8.80;;;;;;;4.31;100.00;102208.44;5076212;28;20113;-87
2022/11/13 07:42:46;;;;;;;16.10;8.23;;;;;;;4.35;100.00;102213.38;5076068;28;20574;-86
2022/11/13 07:45:12;;;;;;;16.53;7.70;;;;;;;4.37;100.00;102208.75;5092179;28;20475;-86
2022/11/13 07:47:37;;;;;;;13.93;7.72;;;;;;;4.39;100.00;102206.75;5113412;28;20036;-86
2022/11/13 07:50:03;;;;;;;14.57;8.17;;;;;;;4.42;100.00;102200.25;5113359;28;20506;-86
2022/11/13 07:52:29;;;;;;;14.57;8.73;;;;;;;4.46;100.00;102196.28;5113288;28;20035;-86
2022/11/13 07:54:54;;;;;;;13.33;8.70;;;;;;;4.51;100.00;102199.38;5130435;27;20027;-86
2022/11/13 07:57:21;;;;;;;16.40;9.00;;;;;;;4.54;100.00;102204.47;5096017;28;20122;-86
2022/11/13 07:59:47;;;;;;;17.33;10.52;;;;;;;4.59;100.00;102204.06;5113247;28;20407;-86
2022/11/13 08:02:15;;;;;;;17.52;11.23;;;;;;;4.64;100.00;102204.47;5095837;28;20039;-86
2022/11/13 08:04:40;;;;;;;15.02;10.02;;;;;;;4.68;100.00;102199.66;5114448;28;20043;-87
2022/11/13 08:07:06;;;;;;;15.75;9.60;;;;;;;4.74;100.00;102204.47;5096327;28;20507;-86
2022/11/13 08:09:32;;;;;;;19.08;9.73;;;;;;;4.77;100.00;102197.94;5113443;28;20051;-86
2022/11/13 08:11:57;;;;;;;14.97;9.67;;;;;;;4.81;100.00;102200.19;5114320;28;20055;-87
2022/11/13 08:14:22;;;;;;;14.47;8.93;;;;;;;4.85;100.00;102198.94;5113056;28;20507;-87
2022/11/13 08:16:48;;;;;;;14.07;9.33;;;;;;;4.89;100.00;102196.81;5113026;28;20031;-86
2022/11/13 08:19:16;;;;;;;13.50;9.10;;;;;;;4.98;100.00;102197.78;5112510;28;20042;-86
2022/11/13 08:21:41;;;;;;;15.52;8.98;;;;;;;5.01;100.00;102198.31;5111980;28;20043;-86
2022/11/13 08:24:08;;;;;;;13.73;9.20;;;;;;;5.07;100.00;102192.38;5113051;28;20581;-86
2022/11/13 08:26:37;;;;;;;16.10;9.45;;;;;;;5.13;100.00;102200.84;5129924;28;20062;-86
2022/11/13 08:29:02;;;;;;;16.13;8.80;;;;;;;5.19;100.00;102189.50;5112915;28;20046;-86
2022/11/13 08:31:30;;;;;;;17.03;9.97;;;;;;;5.24;100.00;102204.22;5095863;28;20073;-86
2022/11/13 08:33:56;;;;;;;18.45;10.88;;;;;;;5.31;100.00;102191.00;5129626;28;20422;-86
2022/11/13 08:36:21;;;;;;;30.20;14.27;;;;;;;5.37;100.00;102182.34;5095712;28;20471;-86
2022/11/13 08:38:49;;;;;;;19.53;9.60;;;;;;;5.45;100.00;102185.16;5114043;28;20066;-86
2022/11/13 08:41:15;;;;;;;15.07;8.95;;;;;;;5.53;100.00;102176.31;5130027;28;20507;-86
2022/11/13 08:43:40;;;;;;;13.73;8.93;;;;;;;5.60;100.00;102173.88;5112640;28;20036;-87
2022/11/13 08:46:06;;;;;;;12.75;8.95;;;;;;;5.67;100.00;102177.69;5112430;28;20301;-86
2022/11/13 08:48:32;;;;;;;15.07;8.60;;;;;;;5.73;100.00;102170.84;5112733;28;20413;-86
2022/11/13 08:50:57;;;;;;;12.18;8.13;;;;;;;5.81;100.00;102179.00;5112954;28;20111;-86
2022/11/13 08:53:24;;;;;;;14.93;8.13;;;;;;;5.88;100.00;102179.25;5112911;28;20454;-87
2022/11/13 08:55:50;;;;;;;12.07;8.40;;;;;;;5.97;100.00;102179.19;5113606;28;20035;-87
2022/11/13 08:58:15;;;;;;;10.98;8.32;;;;;;;6.05;100.00;102175.75;5112461;28;20032;-86
2022/11/13 09:00:41;;;;;;;12.33;8.23;;;;;;;6.10;100.00;102178.84;5112487;28;20078;-86
2022/11/13 09:03:09;;;;;;;11.10;8.07;;;;;;;6.17;100.00;102175.53;5130295;28;20073;-86
2022/11/13 09:05:35;;;;;;;11.68;7.70;;;;;;;6.20;100.00;102177.91;5129681;28;20521;-87
2022/11/13 09:08:01;;;;;;;10.93;7.32;;;;;;;6.27;100.00;102177.13;5129634;28;20039;-86
2022/11/13 09:10:27;;;;;;;10.50;7.37;;;;;;;6.35;100.00;102180.91;5112657;28;20093;-86
2022/11/13 09:13:02;;;;;;;10.55;7.38;;;;;;;6.42;100.00;102169.38;5113726;28;20043;-86
2022/11/13 09:15:29;;;;;;;10.68;7.18;;;;;;;6.49;100.00;102166.88;5129535;28;20036;-87
2022/11/13 09:17:57;;;;;;;11.40;7.60;;;;;;;6.58;100.00;102165.09;5113361;28;20043;-86
2022/11/13 09:20:22;;;;;;;9.45;6.90;;;;;;;6.65;100.00;102163.47;5114085;28;20035;-87
2022/11/13 09:22:48;;;;;;;10.63;6.93;;;;;;;6.71;100.00;102157.44;5112650;28;20046;-86
2022/11/13 09:25:14;;;;;;;12.98;7.07;;;;;;;6.80;99.55;102155.66;5112368;28;20471;-87
2022/11/13 09:27:39;;;;;;;10.40;7.25;;;;;;;6.88;99.33;102154.84;5095393;28;20479;-87
2022/11/13 09:30:05;;;;;;;9.90;7.45;;;;;;;6.93;99.16;102155.22;5095692;28;20047;-86
2022/11/13 09:32:31;;;;;;;11.37;6.90;;;;;;;7.00;98.69;102159.81;5094880;28;20134;-86
2022/11/13 09:34:56;;;;;;;9.45;6.32;;;;;;;7.08;97.90;102161.72;5096106;28;20286;-86
2022/11/13 09:37:21;;;;;;;10.20;7.10;;;;;;;7.17;98.13;102166.16;5112400;28;20456;-87
2022/11/13 09:39:47;;;;;;;9.57;6.97;;;;;;;7.25;98.09;102162.66;5114190;28;20048;-86
2022/11/13 09:42:25;;;;;;;11.47;7.60;;;;;;;7.33;97.31;102161.84;5115366;28;20024;-87
2022/11/13 09:44:57;;;;;;;9.02;6.60;;;;;;;7.40;96.44;102154.81;5115422;28;20075;-87
2022/11/13 09:47:41;;;;;;;9.43;6.70;;;;;;;7.50;95.99;102160.91;5115950;28;20042;-86
2022/11/13 09:50:21;;;;;;;10.50;7.00;;;;;;;7.60;95.75;102151.84;5115858;28;20483;-86
2022/11/13 09:52:53;;;;;;;10.50;6.85;;;;;;;7.67;95.33;102158.28;5115630;28;20043;-86
2022/11/13 09:55:29;;;;;;;11.57;7.30;;;;;;;7.76;94.50;102157.28;5116868;27;20475;-86
2022/11/13 09:58:00;;;;;;;11.43;7.60;;;;;;;7.84;94.04;102154.59;5115027;28;20046;-87
2022/11/13 10:00:28;;;;;;;10.73;6.80;;;;;;;7.93;93.51;102157.31;5115571;28;20089;-87
2022/11/13 10:03:23;;;;;;;10.00;6.65;;;;;;;8.04;93.45;102147.03;5132542;27;20039;-86
2022/11/13 10:06:23;;;;;;;11.60;7.10;;;;;;;8.16;92.26;102152.13;5115436;28;20035;-86
2022/11/13 10:08:57;;;;;;;10.53;6.87;;;;;;;8.26;91.38;102145.53;5132516;27;20028;-86
2022/11/13 10:11:45;;;;;;;8.15;6.15;;;;;;;8.34;90.18;102146.56;5115896;28;20036;-86
2022/11/13 10:14:22;;;;;;;9.90;6.90;;;;;;;8.46;89.67;102142.53;5132542;27;20071;-87
2022/11/13 10:16:56;;;;;;;8.70;5.93;;;;;;;8.54;87.73;102145.22;5115309;28;20176;-87
2022/11/13 10:19:39;;;;;;;8.57;6.05;;;;;;;8.65;88.19;102148.59;5132522;27;20464;-87
2022/11/13 10:22:10;;;;;;;8.07;6.40;;;;;;;8.71;87.68;102137.94;5115336;28;20071;-87
2022/11/13 10:24:40;;;;;;;11.27;6.65;;;;;;;8.80;87.06;102140.63;5114981;28;20040;-87
2022/11/13 10:27:10;;;;;;;11.00;6.55;;;;;;;8.86;86.87;102138.09;5114891;28;20055;-86
2022/11/13 10:29:37;;;;;;;10.57;6.80;;;;;;;8.94;85.35;102134.50;5115864;28;20064;-87
2022/11/13 10:32:21;;;;;;;8.40;5.90;;;;;;;9.04;85.94;102135.16;5131603;27;20037;-86
2022/11/13 10:34:52;;;;;;;9.97;6.07;;;;;;;9.16;83.86;102123.97;5132363;27;20040;-86
2022/11/13 10:37:29;;;;;;;9.75;5.90;;;;;;;9.27;83.88;102120.84;5114632;28;20031;-87
2022/11/13 10:39:54;;;;;;;8.55;5.75;;;;;;;9.41;82.54;102114.69;5115978;28;20127;-86
2022/11/13 10:42:27;;;;;;;9.40;6.23;;;;;;;9.58;81.53;102112.78;5131644;27;20035;-87
2022/11/13 10:44:59;;;;;;;7.85;5.82;;;;;;;9.70;81.35;102113.22;5115062;28;20100;-87
2022/11/13 10:47:31;;;;;;;7.93;5.90;;;;;;;9.89;80.14;102101.06;5114569;28;20550;-86
2022/11/13 10:50:07;;;;;;;8.00;5.13;;;;;;;10.07;79.50;102094.47;5131339;27;20032;-87
2022/11/13 10:52:33;;;;;;;7.55;5.32;;;;;;;10.27;78.59;102090.22;5114537;28;20131;-87
2022/11/13 10:55:15;;;;;;;7.60;5.35;;;;;;;10.49;79.37;102088.53;5114473;28;20365;-87
2022/11/13 10:57:40;;;;;;;7.97;5.30;;;;;;;10.76;77.24;102082.69;5114247;28;20058;-86
2022/11/13 11:00:31;;;;;;;9.43;5.70;;;;;;;11.33;77.79;102081.97;5114008;28;20491;-87
2022/11/13 11:02:57;;;;;;;7.15;5.00;;;;;;;13.77;70.22;102072.44;5114481;28;20043;-87
2022/11/13 11:05:26;;;;;;;6.20;4.77;;;;;;;17.51;59.12;102060.47;5113765;28;20031;-87
2022/11/13 11:07:53;;;;;;;6.35;4.50;;;;;;;20.29;49.51;102053.56;5131242;27;20036;-87
2022/11/13 11:10:34;;;;;;;5.65;4.55;;;;;;;22.71;51.31;102055.34;5115082;28;20042;-87
2022/11/13 11:13:19;;;;;;;7.78;4.38;;;;;;;24.93;44.66;102048.94;5115282;28;20114;-87
2022/11/13 11:15:55;;;;;;;7.10;4.40;;;;;;;26.55;37.90;102045.59;5131819;27;20031;-87
2022/11/13 11:18:27;;;;;;;5.60;4.95;;;;;;;27.69;32.26;102047.75;5113826;28;20036;-87
2022/11/13 11:20:58;;;;;;;8.15;4.65;;;;;;;28.91;31.10;102057.00;5113707;28;20031;-87
2022/11/13 11:23:47;;;;;;;6.35;5.00;;;;;;;30.19;34.85;102050.41;5131571;27;20031;-87